KBAD/BAD METAR and TAF weather

Enter ICAO airport designator
Station Type Date Time Source
KBAD METAR 2024/02/26 16:55 UTC NOAA

KBAD 261655Z AUTO 23012KT 10SM CLR 25/17 A2991 RMK AO2 SLP131 T02460168


Station Type Date Time Source
KBAD Decoded METAR 2024/02/26 16:55 UTC NOAA

Barksdale Air Force Base, LA, United States (KBAD) 32-30N 093-40W
Feb 26, 2024 - 11:55 AM EST / 2024.02.26 1655 UTC
Wind: from the SW (230 degrees) at 14 MPH (12 KT):0
Visibility: 10 mile(s):0
Sky conditions: clear
Temperature: 76.3 F (24.6 C)
Dew Point: 62.2 F (16.8 C)
Relative Humidity: 61%
Pressure (altimeter): 29.91 in. Hg (1012 hPa)
ob: KBAD 261655Z AUTO 23012KT 10SM CLR 25/17 A2991 RMK AO2 SLP131 T02460168
cycle: 17

Station Type Date Time Source
KBAD TAF 2024/02/26 15:15 UTC NOAA